Time;durP1;ratioP1;P1;durP2;ratioP2;P2;SDS_P1;SDS_P2;PMS_P1;PMS_P2;Temp;Humidity;BMP_temperature;BMP_pressure;BME280_temperature;BME280_humidity;BME280_pressure;Samples;Min_cycle;Max_cycle;Signal;HPM_P1;HPM_P2
2021/01/18 00:02:53;;;;;;;109.85;39.92;;;;;;;-11.91;70.87;99464.16;2206485;79;21729;-68
2021/01/18 00:05:56;;;;;;;109.60;39.18;;;;;;;-11.93;70.94;99464.11;2214793;79;21285;-70
2021/01/18 00:08:58;;;;;;;106.07;37.10;;;;;;;-11.84;71.09;99457.27;2222608;79;21689;-70
2021/01/18 00:12:00;;;;;;;105.90;38.60;;;;;;;-11.92;70.76;99448.12;2205295;79;21277;-71
2021/01/18 00:15:03;;;;;;;114.30;39.30;;;;;;;-12.02;70.88;99453.67;2205559;79;21309;-70
2021/01/18 00:18:05;;;;;;;113.52;38.98;;;;;;;-12.07;70.97;99456.00;2210569;79;21296;-71
2021/01/18 00:21:07;;;;;;;;;;;;;;;-12.08;71.10;99457.20;2226475;79;21166;-72
2021/01/18 00:24:09;;;;;;;114.88;41.33;;;;;;;-12.04;71.26;99457.79;2213809;79;20213;-72
2021/01/18 00:27:11;;;;;;;114.57;40.48;;;;;;;-12.06;71.02;99456.47;2215001;79;21274;-71
2021/01/18 00:30:14;;;;;;;114.65;44.27;;;;;;;-12.13;71.07;99462.09;2213882;79;21733;-72
2021/01/18 00:33:16;;;;;;;108.63;43.50;;;;;;;-12.22;71.21;99453.73;2212315;79;21274;-72
2021/01/18 00:36:18;;;;;;;115.30;44.40;;;;;;;-12.28;71.46;99446.30;2211046;79;21591;-72
2021/01/18 00:39:20;;;;;;;126.60;43.92;;;;;;;-12.31;71.61;99449.59;2214976;79;21122;-72
2021/01/18 00:42:22;;;;;;;113.55;42.38;;;;;;;-12.28;71.42;99449.70;2212090;79;21713;-71
2021/01/18 00:45:25;;;;;;;117.77;42.25;;;;;;;-12.34;71.37;99453.64;2215342;79;21143;-63
2021/01/18 00:48:27;;;;;;;123.02;43.52;;;;;;;-12.44;71.52;99460.87;2219333;79;21282;-70
2021/01/18 00:51:29;;;;;;;119.53;43.42;;;;;;;-12.49;71.59;99463.59;2227926;79;21721;-64
2021/01/18 00:54:31;;;;;;;121.47;46.23;;;;;;;-12.57;71.60;99466.20;2218420;79;21285;-63
2021/01/18 00:57:33;;;;;;;124.92;43.42;;;;;;;-12.56;71.88;99467.52;2237892;79;21733;-63
2021/01/18 01:00:35;;;;;;;119.33;42.83;;;;;;;-12.55;71.62;99460.41;2223174;79;21304;-63
2021/01/18 01:03:37;;;;;;;122.00;45.55;;;;;;;-12.62;71.78;99462.63;2219002;79;21282;-62
2021/01/18 01:06:40;;;;;;;124.40;44.93;;;;;;;-12.60;71.82;99458.08;2212428;79;21710;-64
2021/01/18 01:09:42;;;;;;;117.42;41.85;;;;;;;-12.53;71.91;99458.36;2223455;79;21278;-63
2021/01/18 01:12:44;;;;;;;;;;;;;;;-12.52;71.80;99455.03;2217466;79;21112;-65
2021/01/18 01:15:46;;;;;;;111.75;41.88;;;;;;;-12.53;71.72;99456.68;2213639;79;20221;-63
2021/01/18 01:18:48;;;;;;;;;;;;;;;-12.53;71.70;99460.88;2230896;79;21262;-63
2021/01/18 01:21:50;;;;;;;104.20;40.43;;;;;;;-12.46;71.68;99453.60;2213651;79;20221;-63
2021/01/18 01:24:52;;;;;;;124.75;43.50;;;;;;;-12.48;71.62;99460.66;2210987;79;21614;-63
2021/01/18 01:27:55;;;;;;;132.65;44.48;;;;;;;-12.42;71.63;99460.92;2218008;79;21294;-63
2021/01/18 01:30:57;;;;;;;;;;;;;;;-12.44;71.47;99462.52;2222311;79;21304;-64
2021/01/18 01:33:59;;;;;;;111.12;39.00;;;;;;;-12.48;71.46;99466.59;2232999;79;20240;-65
2021/01/18 01:37:01;;;;;;;112.65;41.00;;;;;;;-12.34;71.47;99459.55;2206069;79;21163;-63
2021/01/18 01:40:03;;;;;;;124.90;42.53;;;;;;;-12.38;71.40;99458.99;2231964;79;21266;-70
2021/01/18 01:43:05;;;;;;;118.72;41.92;;;;;;;-12.30;71.34;99463.94;2226215;79;22848;-70
2021/01/18 01:46:08;;;;;;;122.13;43.25;;;;;;;-12.08;71.46;99462.27;2223119;79;21286;-69
2021/01/18 01:49:10;;;;;;;118.75;43.05;;;;;;;-12.01;71.00;99457.91;2215134;79;21302;-69
2021/01/18 01:52:12;;;;;;;125.42;43.60;;;;;;;-12.09;70.73;99460.14;2215763;79;21705;-71
2021/01/18 01:55:14;;;;;;;115.97;40.12;;;;;;;-12.18;70.84;99457.64;2226410;79;21301;-71
2021/01/18 01:58:16;;;;;;;114.72;39.40;;;;;;;-12.30;70.91;99464.34;2213792;79;21582;-72
2021/01/18 02:01:19;;;;;;;107.15;38.17;;;;;;;-12.38;71.16;99464.91;2215640;79;21282;-71
2021/01/18 02:04:21;;;;;;;112.17;41.88;;;;;;;-12.47;71.43;99472.50;2216639;79;21309;-71
2021/01/18 02:07:23;;;;;;;106.72;42.33;;;;;;;-12.60;71.56;99476.19;2222055;79;21282;-71
2021/01/18 02:10:25;;;;;;;;;;;;;;;-12.67;71.77;99476.31;2207854;79;21298;-71
2021/01/18 02:13:28;;;;;;;107.97;39.78;;;;;;;-12.72;71.94;99476.13;2220986;79;20496;-71
2021/01/18 02:16:30;;;;;;;113.68;40.40;;;;;;;-12.71;71.94;99475.75;2225497;79;21290;-63
2021/01/18 02:19:32;;;;;;;109.72;40.35;;;;;;;-12.69;72.03;99466.55;2214626;79;21297;-63
2021/01/18 02:22:34;;;;;;;102.72;39.50;;;;;;;-12.62;72.03;99466.42;2244249;79;21308;-64
2021/01/18 02:25:36;;;;;;;103.62;37.60;;;;;;;-12.64;72.22;99467.63;2217195;79;21296;-63
2021/01/18 02:28:39;;;;;;;92.22;33.88;;;;;;;-12.64;72.22;99466.36;2217121;79;21277;-63
2021/01/18 02:31:41;;;;;;;;;;;;;;;-12.59;72.09;99461.08;2223209;79;21139;-63
2021/01/18 02:34:43;;;;;;;90.00;30.62;;;;;;;-12.63;72.03;99457.95;2205101;79;20217;-64
2021/01/18 02:37:46;;;;;;;92.57;33.90;;;;;;;-12.66;72.13;99452.78;2227593;79;21725;-66
2021/01/18 02:40:49;;;;;;;85.35;30.52;;;;;;;-12.67;72.36;99456.51;2207785;79;21274;-64
2021/01/18 02:43:51;;;;;;;84.05;28.35;;;;;;;-12.68;72.29;99457.30;2229144;79;21305;-63
2021/01/18 02:46:53;;;;;;;;;;;;;;;-12.73;72.55;99457.11;2217518;79;21714;-64
2021/01/18 02:49:55;;;;;;;66.95;23.73;;;;;;;-12.77;72.55;99456.14;2221296;79;20220;-63
2021/01/18 02:52:59;;;;;;;72.37;25.60;;;;;;;-12.81;72.83;99461.86;2220064;79;21285;-64
2021/01/18 02:56:01;;;;;;;85.07;29.27;;;;;;;-12.87;73.32;99457.81;2228386;79;21737;-63
2021/01/18 02:59:03;;;;;;;65.72;25.00;;;;;;;-12.87;73.15;99461.61;2230386;79;21367;-63
2021/01/18 03:02:07;;;;;;;60.60;23.30;;;;;;;-12.86;73.31;99459.52;2213262;79;21261;-64
2021/01/18 03:05:09;;;;;;;51.58;18.12;;;;;;;-12.96;73.17;99458.67;2218986;79;21718;-69
2021/01/18 03:08:11;;;;;;;;;;;;;;;-13.07;74.34;99470.85;2236528;79;21155;-64
2021/01/18 03:11:13;;;;;;;49.60;16.70;;;;;;;-13.05;73.97;99462.08;2212975;79;20613;-67
2021/01/18 03:14:15;;;;;;;49.33;17.60;;;;;;;-13.11;74.12;99453.42;2224298;79;21281;-65
2021/01/18 03:17:19;;;;;;;56.30;20.27;;;;;;;-13.16;74.78;99455.28;2215419;79;21567;-64
2021/01/18 03:20:21;;;;;;;49.05;18.20;;;;;;;-13.20;74.56;99451.77;2213510;79;21273;-66
2021/01/18 03:23:24;;;;;;;54.85;18.92;;;;;;;-13.22;74.74;99459.66;2228839;79;21285;-71
2021/01/18 03:26:26;;;;;;;55.25;19.75;;;;;;;-13.29;75.33;99461.45;2225317;79;21107;-66
2021/01/18 03:29:28;;;;;;;;;;;;;;;-13.33;75.04;99462.11;2219552;79;21292;-68
2021/01/18 03:32:32;;;;;;;65.05;20.10;;;;;;;-13.41;75.33;99454.23;2220195;79;21135;-66
2021/01/18 03:35:34;;;;;;;49.48;15.08;;;;;;;-13.38;74.92;99454.38;2213609;79;21344;-70
2021/01/18 03:38:36;;;;;;;52.35;18.07;;;;;;;-13.37;75.61;99454.84;2225232;79;21295;-70
2021/01/18 03:41:38;;;;;;;53.95;19.07;;;;;;;-13.29;75.50;99446.30;2223836;79;21261;-71
2021/01/18 03:44:40;;;;;;;55.98;20.25;;;;;;;-13.40;75.43;99447.52;2219166;79;21685;-70
2021/01/18 03:47:42;;;;;;;;;;;;;;;-13.30;75.45;99452.14;2221841;79;21274;-63
2021/01/18 03:50:45;;;;;;;57.70;19.10;;;;;;;-13.29;75.06;99453.47;2205102;79;20155;-64
2021/01/18 03:53:47;;;;;;;;;;;;;;;-13.31;75.30;99454.22;2228239;79;21308;-64
2021/01/18 03:56:49;;;;;;;55.12;17.05;;;;;;;-13.27;74.88;99449.78;2227668;79;20221;-63
2021/01/18 03:59:52;;;;;;;56.83;19.92;;;;;;;-13.19;74.78;99450.10;2212678;79;21594;-71
2021/01/18 04:02:54;;;;;;;;;;;;;;;-13.18;74.91;99441.73;2226547;79;21309;-67
2021/01/18 04:05:57;;;;;;;59.38;19.50;;;;;;;-13.21;75.19;99442.46;2208469;79;20225;-65
2021/01/18 04:09:00;;;;;;;61.02;19.00;;;;;;;-13.26;75.66;99437.22;2208730;79;21714;-66
2021/01/18 04:12:02;;;;;;;54.58;19.62;;;;;;;-13.34;75.70;99437.27;2238078;79;21753;-66
2021/01/18 04:15:04;;;;;;;53.98;20.23;;;;;;;-13.38;75.64;99435.84;2221512;79;21286;-65
2021/01/18 04:18:06;;;;;;;;;;;;;;;-13.39;75.24;99434.97;2217464;79;21151;-65
2021/01/18 04:21:09;;;;;;;59.55;19.57;;;;;;;-13.34;75.19;99433.92;2212090;79;20154;-65
2021/01/18 04:24:11;;;;;;;63.30;20.72;;;;;;;-13.33;75.37;99427.65;2221052;79;21583;-66
2021/01/18 04:27:13;;;;;;;53.85;19.87;;;;;;;-13.36;74.99;99431.72;2228653;79;21559;-65
2021/01/18 04:30:16;;;;;;;57.38;21.57;;;;;;;-13.33;75.70;99435.60;2226227;79;21365;-70
2021/01/18 04:33:18;;;;;;;60.90;22.22;;;;;;;-13.34;75.48;99425.91;2222021;79;21120;-66
2021/01/18 04:36:21;;;;;;;59.10;20.55;;;;;;;-13.39;74.89;99427.80;2220216;79;21713;-66
2021/01/18 04:39:23;;;;;;;67.50;22.37;;;;;;;-13.44;75.25;99424.67;2222577;79;21144;-66
2021/01/18 04:42:25;;;;;;;;;;;;;;;-13.26;75.12;99427.12;2234511;79;21813;-68
2021/01/18 04:45:28;;;;;;;56.73;18.52;;;;;;;-13.16;74.95;99428.36;2212838;79;20135;-66
2021/01/18 04:48:30;;;;;;;62.13;22.25;;;;;;;-13.31;75.23;99430.23;2231053;79;21297;-65
2021/01/18 04:51:32;;;;;;;;;;;;;;;-13.32;74.97;99431.88;2227719;79;21727;-70
2021/01/18 04:54:34;;;;;;;60.63;19.00;;;;;;;-13.22;74.78;99433.15;2220884;79;20188;-69
2021/01/18 04:57:36;;;;;;;;;;;;;;;-13.25;74.75;99438.07;2238221;79;21279;-69
2021/01/18 05:00:39;;;;;;;52.05;12.68;;;;;;;-13.25;74.52;99441.45;2205566;79;20273;-69
2021/01/18 05:03:41;;;;;;;;;;;;;;;-13.33;74.37;99436.48;2222060;79;21155;-71
2021/01/18 05:06:44;;;;;;;33.13;9.95;;;;;;;-13.43;74.89;99436.88;2215585;79;20487;-72
2021/01/18 05:09:46;;;;;;;62.17;20.85;;;;;;;-13.64;75.24;99427.56;2214682;79;21285;-70
2021/01/18 05:12:48;;;;;;;;;;;;;;;-13.75;74.98;99425.36;2222950;79;21353;-71
2021/01/18 05:15:50;;;;;;;53.13;18.80;;;;;;;-13.73;75.17;99417.08;2217403;79;20229;-71
2021/01/18 05:18:52;;;;;;;;;;;;;;;-13.75;74.80;99413.60;2219205;79;21171;-63
2021/01/18 05:21:54;;;;;;;58.40;19.67;;;;;;;-13.61;74.91;99421.80;2233548;79;20269;-67
2021/01/18 05:24:56;;;;;;;;;;;;;;;-13.56;74.69;99422.85;2232795;79;21731;-63
2021/01/18 05:27:58;;;;;;;76.30;24.57;;;;;;;-13.44;74.53;99427.20;2218718;79;20233;-63
2021/01/18 05:31:01;;;;;;;72.37;23.35;;;;;;;-13.25;74.44;99423.77;2216595;79;21273;-63
2021/01/18 05:34:03;;;;;;;;;;;;;;;-13.18;73.75;99422.80;2226775;79;21143;-68
2021/01/18 05:37:05;;;;;;;59.85;18.90;;;;;;;-13.24;73.63;99420.88;2220835;79;20253;-63
2021/01/18 05:40:07;;;;;;;77.22;25.05;;;;;;;-13.26;73.68;99423.33;2217313;79;21547;-64
2021/01/18 05:43:10;;;;;;;60.38;21.50;;;;;;;-13.19;73.73;99426.11;2218469;79;21408;-63
2021/01/18 05:46:12;;;;;;;66.25;21.42;;;;;;;-13.17;73.57;99425.39;2236499;79;21251;-63
2021/01/18 05:49:14;;;;;;;;;;;;;;;-13.20;73.48;99421.47;2221500;79;21265;-64
2021/01/18 05:52:16;;;;;;;60.73;20.77;;;;;;;-13.18;73.45;99427.85;2234683;79;20221;-63
2021/01/18 05:55:18;;;;;;;59.40;19.92;;;;;;;-13.11;73.49;99423.12;2210981;79;21254;-63
2021/01/18 05:58:21;;;;;;;67.85;23.22;;;;;;;-13.01;73.06;99429.81;2208782;79;21281;-63
2021/01/18 06:01:23;;;;;;;64.45;24.23;;;;;;;-13.19;72.97;99424.85;2222814;79;21684;-62
2021/01/18 06:04:25;;;;;;;;;;;;;;;-13.35;73.15;99430.93;2236055;79;21139;-62
2021/01/18 06:07:27;;;;;;;55.90;20.15;;;;;;;-13.52;73.33;99436.48;2216471;79;20217;-62
2021/01/18 06:10:29;;;;;;;;;;;;;;;-13.55;73.51;99433.83;2207802;79;21288;-63
2021/01/18 06:13:32;;;;;;;63.78;22.90;;;;;;;-13.36;73.82;99431.31;2213688;79;20231;-62
2021/01/18 06:16:34;;;;;;;74.55;24.67;;;;;;;-13.16;73.72;99428.77;2219332;79;21317;-62
2021/01/18 06:19:36;;;;;;;;;;;;;;;-13.00;73.27;99427.76;2224403;79;21194;-63
2021/01/18 06:22:38;;;;;;;77.95;26.87;;;;;;;-13.15;72.80;99421.66;2216580;79;20233;-69
2021/01/18 06:25:41;;;;;;;70.47;25.50;;;;;;;-13.09;73.26;99420.66;2231409;79;21709;-70
2021/01/18 06:28:44;;;;;;;83.90;28.60;;;;;;;-12.95;73.08;99432.62;2226568;79;21142;-70
2021/01/18 06:31:46;;;;;;;68.78;23.73;;;;;;;-12.92;72.88;99439.91;2219791;79;21281;-69
2021/01/18 06:34:50;;;;;;;74.72;23.92;;;;;;;-12.88;72.89;99439.66;2208621;79;21657;-70
2021/01/18 06:37:52;;;;;;;;;;;;;;;-12.87;72.60;99439.25;2232948;79;21305;-71
2021/01/18 06:40:54;;;;;;;58.55;21.25;;;;;;;-12.81;72.62;99444.55;2234344;79;20192;-70
2021/01/18 06:43:56;;;;;;;78.78;26.45;;;;;;;-12.73;72.67;99445.74;2226564;79;21281;-69
2021/01/18 06:46:58;;;;;;;74.30;26.20;;;;;;;-12.72;72.51;99448.74;2213635;79;21729;-71
2021/01/18 06:50:00;;;;;;;70.95;24.43;;;;;;;-12.67;72.66;99448.93;2219508;79;21152;-64
2021/01/18 06:53:02;;;;;;;67.00;23.07;;;;;;;-12.72;72.06;99454.65;2205326;79;21281;-64
2021/01/18 06:56:04;;;;;;;71.67;25.17;;;;;;;-13.01;72.37;99461.38;2222117;79;21297;-68
2021/01/18 06:59:07;;;;;;;76.40;26.93;;;;;;;-13.34;72.95;99465.05;2217668;79;21717;-63
2021/01/18 07:02:09;;;;;;;78.37;27.60;;;;;;;-13.44;73.64;99470.11;2223514;79;21692;-66
2021/01/18 07:05:13;;;;;;;81.22;27.82;;;;;;;-13.52;73.49;99469.30;2214886;79;21367;-65
2021/01/18 07:08:16;;;;;;;76.15;25.27;;;;;;;-13.46;73.84;99474.61;2216772;79;21150;-65
2021/01/18 07:11:19;;;;;;;107.72;37.65;;;;;;;-13.28;73.58;99482.98;2213570;79;21285;-67
2021/01/18 07:14:21;;;;;;;65.83;22.95;;;;;;;-13.18;73.59;99480.88;2235221;79;21147;-66
2021/01/18 07:17:23;;;;;;;98.50;35.20;;;;;;;-13.21;73.19;99485.77;2237253;79;21297;-62
2021/01/18 07:20:25;;;;;;;90.30;30.27;;;;;;;-13.25;73.62;99481.84;2230850;79;21285;-69
2021/01/18 07:23:28;;;;;;;74.42;26.87;;;;;;;-13.13;73.42;99485.72;2217224;79;21705;-65
2021/01/18 07:26:30;;;;;;;80.35;27.50;;;;;;;-13.08;73.21;99483.00;2230806;79;21285;-66
2021/01/18 07:29:32;;;;;;;;;;;;;;;-13.24;73.17;99476.42;2229171;79;21273;-66
2021/01/18 07:32:34;;;;;;;71.60;24.72;;;;;;;-13.36;73.64;99474.63;2258847;78;20193;-64
2021/01/18 07:35:37;;;;;;;83.82;30.08;;;;;;;-13.34;73.86;99483.98;2220536;79;21607;-68
2021/01/18 07:38:39;;;;;;;;;;;;;;;-13.10;73.82;99484.58;2216016;79;21249;-71
2021/01/18 07:41:41;;;;;;;79.67;28.45;;;;;;;-12.83;73.45;99483.65;2215796;79;20477;-63
2021/01/18 07:44:45;;;;;;;88.30;30.70;;;;;;;-12.58;73.30;99476.72;2199779;79;21269;-67
2021/01/18 07:47:47;;;;;;;83.95;31.27;;;;;;;-12.29;72.87;99462.29;2212934;79;21266;-70
2021/01/18 07:50:49;;;;;;;89.20;28.77;;;;;;;-12.03;72.54;99469.23;2220013;79;21139;-69
2021/01/18 07:53:51;;;;;;;;;;;;;;;-11.82;71.76;99469.59;2207690;79;21277;-69
2021/01/18 07:56:53;;;;;;;89.30;27.98;;;;;;;-11.64;71.90;99469.42;2224899;79;20221;-67
2021/01/18 07:59:56;;;;;;;88.87;32.48;;;;;;;-11.45;71.24;99467.17;2220590;79;21709;-63
2021/01/18 08:02:58;;;;;;;67.37;26.07;;;;;;;-11.32;71.05;99465.58;2235067;79;21300;-66
2021/01/18 08:06:00;;;;;;;79.62;27.62;;;;;;;-11.18;69.89;99461.41;2224990;79;21293;-67
2021/01/18 08:09:02;;;;;;;74.03;25.55;;;;;;;-11.54;69.86;99469.38;2236113;79;21269;-70
2021/01/18 08:12:05;;;;;;;77.53;27.00;;;;;;;-11.59;70.29;99455.28;2224949;79;21171;-70
2021/01/18 08:15:07;;;;;;;;;;;;;;;-11.40;70.71;99459.36;2224813;79;22067;-71
2021/01/18 08:18:09;;;;;;;72.08;26.57;;;;;;;-11.08;70.57;99461.34;2215122;79;20400;-65
2021/01/18 08:21:12;;;;;;;85.62;30.37;;;;;;;-10.73;69.98;99465.50;2205196;79;21286;-65
2021/01/18 08:24:14;;;;;;;83.55;28.83;;;;;;;-10.64;69.15;99461.61;2222561;79;21151;-63
2021/01/18 08:27:16;;;;;;;76.00;27.02;;;;;;;-10.52;68.41;99457.77;2235913;79;21293;-64
2021/01/18 08:30:18;;;;;;;;;;;;;;;-10.56;67.58;99454.25;2215553;79;21574;-65
2021/01/18 08:33:24;;;;;;;82.67;28.05;;;;;;;-10.66;68.59;99459.44;2253672;78;20142;-66
2021/01/18 08:36:25;;;;;;;72.35;26.07;;;;;;;-10.51;68.39;99460.77;2210185;79;21768;-63
2021/01/18 08:39:27;;;;;;;73.70;26.95;;;;;;;-10.46;67.51;99467.72;2217970;79;21284;-63
2021/01/18 08:42:29;;;;;;;80.90;30.43;;;;;;;-10.27;68.32;99463.20;2213855;79;21293;-65
2021/01/18 08:45:31;;;;;;;81.47;28.92;;;;;;;-10.17;66.55;99470.32;2235278;79;21289;-65
2021/01/18 08:48:35;;;;;;;73.28;26.82;;;;;;;-10.12;67.77;99470.05;2221458;79;21274;-65
2021/01/18 08:51:37;;;;;;;80.50;29.05;;;;;;;-10.00;66.31;99461.09;2219906;79;21151;-68
2021/01/18 08:54:40;;;;;;;77.70;27.70;;;;;;;-10.10;65.76;99459.55;2235055;79;21290;-64
2021/01/18 08:57:42;;;;;;;94.80;32.73;;;;;;;-10.22;65.43;99464.22;2234560;79;21269;-69
2021/01/18 09:00:44;;;;;;;80.28;30.52;;;;;;;-10.07;66.71;99467.64;2234848;79;21147;-66
2021/01/18 09:03:46;;;;;;;84.10;31.82;;;;;;;-9.86;66.75;99464.08;2222544;79;21705;-68
2021/01/18 09:06:49;;;;;;;85.65;31.77;;;;;;;-9.45;67.18;99471.68;2226597;79;21274;-68
2021/01/18 09:09:51;;;;;;;75.25;30.62;;;;;;;-9.07;66.39;99466.82;2212093;79;21614;-66
2021/01/18 09:12:53;;;;;;;77.08;30.30;;;;;;;-8.92;65.26;99467.67;2233560;79;21297;-66
2021/01/18 09:15:55;;;;;;;82.42;34.35;;;;;;;-8.65;65.71;99472.19;2225897;79;21116;-64
2021/01/18 09:18:57;;;;;;;88.47;33.18;;;;;;;-8.28;65.36;99466.74;2229859;79;21713;-66
2021/01/18 09:22:00;;;;;;;96.57;35.15;;;;;;;-8.03;63.95;99466.52;2217700;79;21218;-64
2021/01/18 09:25:02;;;;;;;93.65;35.95;;;;;;;-7.92;64.14;99465.48;2228548;79;21273;-67
2021/01/18 09:28:04;;;;;;;;;;;;;;;-7.64;63.67;99467.80;2231289;79;21328;-68
2021/01/18 09:31:06;;;;;;;86.83;33.40;;;;;;;-7.75;61.70;99459.52;2214994;79;20252;-67
2021/01/18 09:34:09;;;;;;;96.90;37.63;;;;;;;-7.82;63.25;99454.25;2232617;79;21308;-67
2021/01/18 09:37:11;;;;;;;99.10;37.17;;;;;;;-7.73;62.90;99454.06;2226494;79;21146;-70
2021/01/18 09:40:13;;;;;;;90.30;33.65;;;;;;;-7.85;62.90;99453.77;2236073;79;21151;-69
2021/01/18 09:43:15;;;;;;;92.25;35.95;;;;;;;-7.64;61.64;99446.15;2234431;79;21697;-71
2021/01/18 09:46:17;;;;;;;86.32;33.48;;;;;;;-8.02;61.23;99444.45;2268505;77;21268;-71
2021/01/18 09:49:19;;;;;;;94.58;36.88;;;;;;;-7.91;62.98;99431.56;2232504;79;21277;-68
2021/01/18 09:52:23;;;;;;;88.85;34.95;;;;;;;-7.57;63.28;99429.77;2222799;79;21273;-68
2021/01/18 09:55:25;;;;;;;83.42;32.50;;;;;;;-7.26;62.72;99420.63;2236383;79;21149;-65
2021/01/18 09:58:27;;;;;;;77.42;31.95;;;;;;;-7.12;62.69;99415.39;2221736;79;21742;-68
2021/01/18 10:01:33;;;;;;;82.53;33.30;;;;;;;-6.97;61.77;99419.52;2235624;79;21151;-69
2021/01/18 10:04:36;;;;;;;77.15;30.48;;;;;;;-6.74;62.25;99414.38;2238708;79;21321;-66
2021/01/18 10:07:38;;;;;;;78.15;31.48;;;;;;;-6.46;62.05;99412.76;2220241;79;21167;-64
2021/01/18 10:10:40;;;;;;;76.95;32.28;;;;;;;-6.20;61.59;99403.82;2241512;79;21297;-67
2021/01/18 10:13:42;;;;;;;;;;;;;;;-5.98;61.27;99403.29;2229977;79;21302;-67
2021/01/18 10:16:45;;;;;;;97.70;38.87;;;;;;;-5.97;61.11;99393.95;2223407;79;20488;-69
2021/01/18 10:19:48;;;;;;;81.28;34.85;;;;;;;-5.89;59.05;99396.57;2226885;79;21273;-68
2021/01/18 10:22:50;;;;;;;83.20;34.58;;;;;;;-5.88;60.21;99390.20;2236960;79;21300;-66
2021/01/18 10:25:52;;;;;;;83.22;34.50;;;;;;;-5.70;60.51;99392.17;2223903;80;21250;-66
2021/01/18 10:28:55;;;;;;;80.92;34.43;;;;;;;-5.55;60.28;99384.27;2227721;79;21281;-66
2021/01/18 10:31:57;;;;;;;82.78;35.20;;;;;;;-5.58;58.63;99381.24;2239884;79;21206;-66
2021/01/18 10:34:59;;;;;;;79.32;32.05;;;;;;;-5.68;59.83;99387.92;2240401;79;21784;-65
2021/01/18 10:38:01;;;;;;;84.87;36.93;;;;;;;-5.51;59.95;99381.76;2233340;79;21266;-65
2021/01/18 10:41:05;;;;;;;94.90;37.45;;;;;;;-5.37;59.64;99384.50;2223452;79;21333;-67
2021/01/18 10:44:07;;;;;;;84.25;34.65;;;;;;;-5.29;59.67;99376.47;2241638;79;21281;-65
2021/01/18 10:47:09;;;;;;;87.47;36.80;;;;;;;-5.22;59.67;99366.75;2234091;79;21285;-66
2021/01/18 10:50:11;;;;;;;83.42;33.70;;;;;;;-4.99;59.68;99366.16;2230766;79;21277;-66
2021/01/18 10:53:14;;;;;;;101.50;41.00;;;;;;;-4.87;59.19;99363.73;2218673;79;21724;-65
2021/01/18 10:56:16;;;;;;;108.00;45.75;;;;;;;-4.77;59.26;99363.80;2227769;79;21293;-66
2021/01/18 10:59:20;;;;;;;93.33;38.65;;;;;;;-4.70;59.12;99368.14;2223023;80;21297;-65
2021/01/18 11:02:22;;;;;;;86.65;36.30;;;;;;;-4.70;58.10;99371.98;2240336;79;21131;-65
2021/01/18 11:05:24;;;;;;;;;;;;;;;-4.66;58.76;99371.59;2293945;77;21158;-65
2021/01/18 11:08:27;;;;;;;84.90;35.23;;;;;;;-4.59;58.76;99360.57;2282974;77;20509;-66
2021/01/18 11:11:29;;;;;;;84.92;36.88;;;;;;;-4.46;57.10;99371.78;2280894;78;21170;-67
2021/01/18 11:14:33;;;;;;;91.02;36.00;;;;;;;-4.50;57.56;99368.31;2233966;79;21781;-67
2021/01/18 11:17:35;;;;;;;82.12;35.08;;;;;;;-4.62;56.59;99369.51;2232512;79;21368;-67
2021/01/18 11:20:38;;;;;;;84.67;35.88;;;;;;;-4.79;56.77;99371.47;2239250;79;21305;-67
2021/01/18 11:23:40;;;;;;;90.60;37.75;;;;;;;-4.99;56.33;99373.83;2263596;77;21280;-67
2021/01/18 11:26:46;;;;;;;97.17;39.60;;;;;;;-5.22;55.91;99376.14;2274844;77;21724;-66
2021/01/18 11:29:48;;;;;;;;;;;;;;;-5.15;58.26;99364.28;2278257;77;21273;-66
2021/01/18 11:32:51;;;;;;;81.97;35.65;;;;;;;-5.19;57.45;99362.53;2263117;77;20131;-66
2021/01/18 11:35:53;;;;;;;87.82;36.05;;;;;;;-5.45;55.28;99367.77;2263597;77;21260;-67
2021/01/18 11:38:55;;;;;;;89.50;36.03;;;;;;;-5.78;56.06;99354.14;2278765;77;21135;-67
2021/01/18 11:41:57;;;;;;;93.42;38.28;;;;;;;-6.20;56.67;99361.25;2215904;79;21725;-66
2021/01/18 11:45:00;;;;;;;90.35;37.08;;;;;;;-6.43;58.06;99355.80;2211341;79;21714;-66
2021/01/18 11:48:04;;;;;;;90.77;37.25;;;;;;;-6.18;58.87;99349.34;2220417;79;21281;-67
2021/01/18 11:51:06;;;;;;;96.78;39.63;;;;;;;-5.94;58.62;99351.37;2233370;79;21154;-66
2021/01/18 11:54:08;;;;;;;97.00;38.45;;;;;;;-5.79;57.85;99347.30;2220210;79;21340;-66
2021/01/18 11:57:10;;;;;;;91.97;38.25;;;;;;;-5.78;58.13;99340.09;2222053;79;21623;-66
2021/01/18 12:00:13;;;;;;;97.47;37.78;;;;;;;-5.66;56.18;99340.66;2233963;79;21606;-65
2021/01/18 12:03:16;;;;;;;97.02;38.50;;;;;;;-5.79;57.03;99328.14;2223206;80;21297;-66
2021/01/18 12:06:18;;;;;;;96.30;38.17;;;;;;;-5.77;56.94;99329.03;2235069;79;21142;-66
2021/01/18 12:09:20;;;;;;;91.57;37.25;;;;;;;-5.79;58.34;99325.19;2193212;79;21573;-67
2021/01/18 12:12:23;;;;;;;88.75;36.68;;;;;;;-5.64;58.11;99324.51;2241750;79;21127;-66
2021/01/18 12:15:25;;;;;;;88.47;37.58;;;;;;;-5.58;57.73;99326.28;2239610;79;21268;-68
2021/01/18 12:18:27;;;;;;;94.35;36.17;;;;;;;-5.48;57.51;99321.71;2243985;79;21598;-66
2021/01/18 12:21:29;;;;;;;87.90;36.15;;;;;;;-5.41;56.99;99320.09;2241667;79;21286;-67
2021/01/18 12:24:31;;;;;;;92.75;37.05;;;;;;;-5.26;57.96;99320.67;2272621;77;21178;-66
2021/01/18 12:27:34;;;;;;;96.22;37.50;;;;;;;-5.21;57.77;99322.87;2281591;77;21281;-66
2021/01/18 12:30:36;;;;;;;93.55;37.05;;;;;;;-5.23;57.09;99325.41;2271755;77;21289;-66
2021/01/18 12:33:38;;;;;;;103.25;40.35;;;;;;;-5.36;56.69;99330.36;2291456;77;21151;-67
2021/01/18 12:36:40;;;;;;;93.52;39.42;;;;;;;-5.27;57.62;99321.11;2288761;77;21222;-68
2021/01/18 12:39:43;;;;;;;95.83;38.73;;;;;;;-5.11;57.66;99322.55;2286117;77;21289;-68
2021/01/18 12:42:45;;;;;;;94.28;38.60;;;;;;;-4.84;57.31;99318.13;2261027;78;21265;-66
2021/01/18 12:45:47;;;;;;;93.10;38.25;;;;;;;-4.83;57.44;99309.58;2239319;79;21316;-67
2021/01/18 12:48:50;;;;;;;96.05;40.73;;;;;;;-4.65;57.33;99297.80;2220200;79;21729;-68
2021/01/18 12:51:52;;;;;;;104.53;44.05;;;;;;;-4.26;57.31;99302.77;2225711;78;21736;-65
2021/01/18 12:54:54;;;;;;;98.78;41.90;;;;;;;-4.04;56.80;99299.91;2236113;79;21269;-65
2021/01/18 12:57:56;;;;;;;100.35;41.98;;;;;;;-3.70;56.89;99293.23;2238556;79;21713;-66
2021/01/18 13:00:58;;;;;;;104.17;43.38;;;;;;;-3.81;55.00;99297.45;2217796;79;21273;-66
2021/01/18 13:04:01;;;;;;;98.33;40.58;;;;;;;-3.70;56.34;99288.11;2243602;79;21126;-65
2021/01/18 13:07:04;;;;;;;85.85;36.90;;;;;;;-3.70;56.34;99288.11;2220927;79;21587;-66
2021/01/18 13:10:06;;;;;;;93.35;39.45;;;;;;;-3.63;55.89;99285.15;2226207;79;21289;-66
2021/01/18 13:13:08;;;;;;;99.95;43.45;;;;;;;-3.44;56.26;99283.49;2247046;78;21127;-65
2021/01/18 13:16:10;;;;;;;105.30;46.58;;;;;;;-3.44;55.70;99289.91;2237798;78;21296;-65
2021/01/18 13:19:12;;;;;;;98.40;42.43;;;;;;;-3.36;55.93;99285.66;2211926;79;21281;-66
2021/01/18 13:22:14;;;;;;;108.50;45.38;;;;;;;-3.51;55.71;99280.05;2231519;79;21631;-66
2021/01/18 13:25:17;;;;;;;94.92;38.08;;;;;;;-3.45;55.52;99288.19;2280324;77;21139;-65
2021/01/18 13:28:19;;;;;;;95.45;38.35;;;;;;;-3.44;55.79;99281.37;2278342;77;21300;-65
2021/01/18 13:31:21;;;;;;;100.18;43.68;;;;;;;-3.66;55.56;99274.89;2281186;77;21142;-65
2021/01/18 13:34:24;;;;;;;90.90;40.60;;;;;;;-4.22;55.79;99275.89;2276099;78;21104;-67
2021/01/18 13:37:26;;;;;;;86.60;35.28;;;;;;;-4.68;56.30;99275.59;2271979;77;21108;-68
2021/01/18 13:40:28;;;;;;;90.72;39.18;;;;;;;-4.93;56.86;99281.80;2282249;78;21146;-67
2021/01/18 13:43:31;;;;;;;117.20;47.55;;;;;;;-4.99;57.11;99279.16;2263715;78;21316;-68
2021/01/18 13:46:33;;;;;;;136.18;49.20;;;;;;;-5.04;57.24;99289.78;2272191;78;21251;-67
2021/01/18 13:49:35;;;;;;;124.67;48.95;;;;;;;-4.95;57.50;99281.34;2272950;78;21234;-67
2021/01/18 13:52:37;;;;;;;108.87;44.35;;;;;;;-5.08;57.39;99282.48;2273805;78;21618;-66
2021/01/18 13:55:39;;;;;;;117.33;48.35;;;;;;;-5.08;57.46;99282.48;2261836;78;21135;-67
2021/01/18 13:58:41;;;;;;;146.82;60.73;;;;;;;-5.30;57.19;99280.55;2228687;79;21294;-67
2021/01/18 14:01:44;;;;;;;149.47;62.50;;;;;;;-5.29;57.50;99274.61;2221732;79;21729;-66